Time;durP1;ratioP1;P1;durP2;ratioP2;P2;SDS_P1;SDS_P2;PMS_P1;PMS_P2;Temp;Humidity;BMP_temperature;BMP_pressure;BME280_temperature;BME280_humidity;BME280_pressure;Samples;Min_cycle;Max_cycle;Signal;HPM_P1;HPM_P2
2023/01/31 00:01:04;;;;;;;1.35;1.35;;;;;;;;;;5040524;28;20094;-74
2023/01/31 00:03:29;;;;;;;0.50;0.50;;;;;;;;;;5070070;28;20075;-74
2023/01/31 00:05:54;;;;;;;1.73;1.63;;;;;;;;;;5022757;28;20029;-74
2023/01/31 00:08:20;;;;;;;0.50;0.50;;;;;;;;;;5043141;28;20025;-74
2023/01/31 00:10:45;;;;;;;1.40;1.40;;;;;;;;;;5040727;28;20032;-74
2023/01/31 00:13:10;;;;;;;1.20;1.20;;;;;;;;;;5020055;28;20025;-75
2023/01/31 00:15:35;;;;;;;0.85;0.85;;;;;;;;;;5040767;28;20033;-74
2023/01/31 00:18:01;;;;;;;0.85;0.85;;;;;;;;;;5043125;28;20017;-74
2023/01/31 00:20:26;;;;;;;0.60;0.60;;;;;;;;;;5041105;28;20029;-74
2023/01/31 00:22:52;;;;;;;2.60;1.75;;;;;;;;;;5037694;28;20108;-75
2023/01/31 00:25:17;;;;;;;3.15;1.63;;;;;;;;;;5041336;28;20395;-74
2023/01/31 00:27:42;;;;;;;0.77;0.77;;;;;;;;;;5044162;28;20091;-75
2023/01/31 00:30:09;;;;;;;5.10;2.20;;;;;;;;;;5033475;28;20025;-74
2023/01/31 00:32:34;;;;;;;0.60;0.60;;;;;;;;;;5047268;28;20029;-74
2023/01/31 00:34:59;;;;;;;0.98;0.93;;;;;;;;;;5043333;28;20016;-74
2023/01/31 00:37:25;;;;;;;10.13;5.30;;;;;;;;;;5037304;28;20036;-74
2023/01/31 00:39:50;;;;;;;1.52;1.42;;;;;;;;;;5033772;28;20057;-73
2023/01/31 00:42:16;;;;;;;3.83;1.40;;;;;;;;;;5047197;28;20021;-73
2023/01/31 00:44:41;;;;;;;3.30;0.98;;;;;;;;;;5044121;28;20621;-75
2023/01/31 00:47:06;;;;;;;0.90;0.90;;;;;;;;;;5040887;28;20021;-74
2023/01/31 00:49:31;;;;;;;4.93;2.85;;;;;;;;;;5054706;28;20040;-74
2023/01/31 00:51:57;;;;;;;1.60;1.50;;;;;;;;;;5041308;28;20654;-74
2023/01/31 00:54:22;;;;;;;1.63;1.27;;;;;;;;;;5044976;28;20033;-74
2023/01/31 00:56:47;;;;;;;5.38;2.38;;;;;;;;;;5033204;28;20382;-74
2023/01/31 00:59:13;;;;;;;1.40;1.33;;;;;;;;;;5041557;28;20071;-74
2023/01/31 01:01:38;;;;;;;0.95;0.95;;;;;;;;;;5037825;28;20033;-74
2023/01/31 01:04:04;;;;;;;3.55;1.52;;;;;;;;;;5027820;28;20029;-75
2023/01/31 01:06:29;;;;;;;1.17;0.90;;;;;;;;;;5031756;28;20112;-75
2023/01/31 01:08:56;;;;;;;0.90;0.90;;;;;;;;;;5077768;28;20113;-75
2023/01/31 01:11:25;;;;;;;1.40;1.30;;;;;;;;;;5063425;28;20029;-74
2023/01/31 01:13:50;;;;;;;1.00;1.00;;;;;;;;;;5025623;28;20483;-74
2023/01/31 01:16:31;;;;;;;13.70;1.85;;;;;;;;;;5023128;28;20032;-74
2023/01/31 01:18:56;;;;;;;9.18;1.38;;;;;;;;;;5075389;28;20021;-74
2023/01/31 01:21:24;;;;;;;0.63;0.63;;;;;;;;;;5029727;28;20394;-74
2023/01/31 01:23:50;;;;;;;2.50;1.63;;;;;;;;;;5043658;28;20036;-73
2023/01/31 01:26:18;;;;;;;6.18;2.28;;;;;;;;;;5039256;28;20037;-73
2023/01/31 01:28:43;;;;;;;3.60;1.27;;;;;;;;;;5041423;28;20100;-74
2023/01/31 01:31:11;;;;;;;0.80;0.80;;;;;;;;;;5047354;28;20108;-73
2023/01/31 01:33:36;;;;;;;1.00;0.68;;;;;;;;;;5043752;28;20048;-73
2023/01/31 01:36:06;;;;;;;2.22;1.30;;;;;;;;;;5055941;28;20647;-73
2023/01/31 01:38:36;;;;;;;1.17;1.17;;;;;;;;;;5040901;28;20025;-74
2023/01/31 01:41:02;;;;;;;0.68;0.68;;;;;;;;;;5045652;28;20383;-73
2023/01/31 01:43:43;;;;;;;2.58;1.33;;;;;;;;;;5044428;28;20021;-73
2023/01/31 01:46:13;;;;;;;8.60;1.00;;;;;;;;;;5029138;28;20171;-73
2023/01/31 01:48:38;;;;;;;0.60;0.60;;;;;;;;;;5054911;28;20501;-73
2023/01/31 01:51:05;;;;;;;0.50;0.50;;;;;;;;;;5027898;28;20025;-72
2023/01/31 01:53:34;;;;;;;0.95;0.82;;;;;;;;;;5034107;28;20624;-72
2023/01/31 01:56:04;;;;;;;29.42;1.85;;;;;;;;;;5027349;28;20026;-74
2023/01/31 01:58:32;;;;;;;1.17;1.17;;;;;;;;;;5029063;28;20029;-73
2023/01/31 02:00:58;;;;;;;0.95;0.95;;;;;;;;;;5032237;28;20018;-73
2023/01/31 02:03:23;;;;;;;10.40;2.60;;;;;;;;;;5045696;28;20025;-73
2023/01/31 02:05:52;;;;;;;1.13;1.13;;;;;;;;;;5041852;28;20474;-73
2023/01/31 02:08:19;;;;;;;1.67;1.58;;;;;;;;;;5038291;28;20025;-73
2023/01/31 02:11:01;;;;;;;0.73;0.73;;;;;;;;;;5041871;28;20026;-73
2023/01/31 02:13:27;;;;;;;0.82;0.82;;;;;;;;;;5045502;28;20068;-73
2023/01/31 02:15:52;;;;;;;1.20;0.75;;;;;;;;;;5044228;28;20025;-71
2023/01/31 02:18:20;;;;;;;2.75;2.55;;;;;;;;;;5037886;28;20097;-71
2023/01/31 02:21:15;;;;;;;1.35;1.25;;;;;;;;;;5039366;28;20021;-72
2023/01/31 02:24:18;;;;;;;5.10;2.53;;;;;;;;;;5041475;28;20112;-72
2023/01/31 02:27:03;;;;;;;1.35;1.25;;;;;;;;;;5027480;28;20070;-73
2023/01/31 02:29:49;;;;;;;5.15;2.50;;;;;;;;;;5039654;28;20040;-74
2023/01/31 02:32:52;;;;;;;7.10;2.30;;;;;;;;;;5038270;28;20033;-73
2023/01/31 02:35:26;;;;;;;0.98;0.95;;;;;;;;;;5039513;28;20029;-73
2023/01/31 02:38:06;;;;;;;0.70;0.70;;;;;;;;;;5044590;28;20487;-73
2023/01/31 02:40:48;;;;;;;0.60;0.60;;;;;;;;;;5046067;28;20029;-73
2023/01/31 02:43:25;;;;;;;5.15;1.00;;;;;;;;;;5025361;28;20025;-73
2023/01/31 02:46:07;;;;;;;5.40;1.73;;;;;;;;;;5037873;28;20025;-72
2023/01/31 02:48:52;;;;;;;0.88;0.88;;;;;;;;;;5037445;28;20426;-72
2023/01/31 02:51:22;;;;;;;5.30;1.63;;;;;;;;;;5024094;28;20475;-71
2023/01/31 02:53:52;;;;;;;0.98;0.98;;;;;;;;;;5044520;28;20083;-72
2023/01/31 02:56:22;;;;;;;1.15;1.13;;;;;;;;;;5042475;28;20032;-71
2023/01/31 02:59:14;;;;;;;3.50;1.92;;;;;;;;;;5037290;28;20032;-73
2023/01/31 03:01:43;;;;;;;3.28;2.03;;;;;;;;;;5035612;28;20021;-72
2023/01/31 03:04:10;;;;;;;2.35;1.48;;;;;;;;;;5024671;28;20028;-74
2023/01/31 03:06:36;;;;;;;1.35;1.30;;;;;;;;;;5044336;28;20082;-73
2023/01/31 03:09:20;;;;;;;3.05;1.13;;;;;;;;;;5042118;28;20434;-73
2023/01/31 03:11:53;;;;;;;1.38;1.38;;;;;;;;;;5028676;28;20033;-73
2023/01/31 03:14:27;;;;;;;3.60;1.25;;;;;;;;;;5044267;28;20035;-74
2023/01/31 03:20:08;;;;;;;3.50;2.05;;;;;;;;;;5037635;28;20128;-74
2023/01/31 03:22:38;;;;;;;0.55;0.55;;;;;;;;;;5014627;28;20412;-74
2023/01/31 03:25:06;;;;;;;1.42;0.82;;;;;;;;;;5039062;28;20025;-75
2023/01/31 03:27:32;;;;;;;3.92;1.88;;;;;;;;;;5031841;28;20021;-74
2023/01/31 03:30:03;;;;;;;0.60;0.60;;;;;;;;;;5039427;28;20034;-74
2023/01/31 03:32:35;;;;;;;0.65;0.65;;;;;;;;;;5035877;28;20025;-75
2023/01/31 03:35:00;;;;;;;0.60;0.60;;;;;;;;;;5030794;28;20476;-74
2023/01/31 03:37:36;;;;;;;0.60;0.60;;;;;;;;;;5043644;28;20075;-74
2023/01/31 03:40:33;;;;;;;0.70;0.70;;;;;;;;;;5041754;28;20119;-74
2023/01/31 03:43:07;;;;;;;0.70;0.70;;;;;;;;;;5006639;28;20090;-73
2023/01/31 03:45:47;;;;;;;0.60;0.60;;;;;;;;;;5016787;28;20479;-73
2023/01/31 03:48:16;;;;;;;0.55;0.55;;;;;;;;;;5038314;28;20028;-74
2023/01/31 03:50:46;;;;;;;1.02;1.02;;;;;;;;;;5043776;28;20117;-74
2023/01/31 03:53:16;;;;;;;1.02;1.02;;;;;;;;;;5042732;28;20045;-72
2023/01/31 03:55:52;;;;;;;1.08;0.85;;;;;;;;;;5050057;28;20021;-73
2023/01/31 03:58:19;;;;;;;0.77;0.77;;;;;;;;;;5036196;28;20075;-75
2023/01/31 04:00:45;;;;;;;0.70;0.70;;;;;;;;;;5038461;28;20442;-73
2023/01/31 04:03:26;;;;;;;1.02;1.02;;;;;;;;;;5040039;28;20030;-74
2023/01/31 04:05:52;;;;;;;0.70;0.70;;;;;;;;;;5045435;28;20705;-76
2023/01/31 04:08:17;;;;;;;0.73;0.73;;;;;;;;;;5038403;28;20053;-74
2023/01/31 04:10:43;;;;;;;1.00;1.00;;;;;;;;;;5052849;28;20025;-73
2023/01/31 04:13:08;;;;;;;0.68;0.68;;;;;;;;;;5049804;28;20025;-73
2023/01/31 04:15:34;;;;;;;1.77;1.67;;;;;;;;;;5043508;28;20028;-76
2023/01/31 04:17:59;;;;;;;0.77;0.77;;;;;;;;;;5019733;28;20052;-75
2023/01/31 04:20:24;;;;;;;0.60;0.60;;;;;;;;;;5033897;28;20041;-76
2023/01/31 04:22:50;;;;;;;1.48;1.38;;;;;;;;;;5033511;28;20033;-75
2023/01/31 04:25:15;;;;;;;1.58;1.48;;;;;;;;;;5034261;28;20032;-74
2023/01/31 04:27:40;;;;;;;3.13;1.48;;;;;;;;;;5043058;28;20062;-74
2023/01/31 04:30:07;;;;;;;12.32;2.28;;;;;;;;;;5039543;28;20099;-74
2023/01/31 04:32:32;;;;;;;1.02;1.02;;;;;;;;;;5036184;28;20052;-74
2023/01/31 04:34:57;;;;;;;0.80;0.80;;;;;;;;;;5023946;28;20033;-74
2023/01/31 04:37:23;;;;;;;8.68;1.48;;;;;;;;;;5045370;28;20033;-73
2023/01/31 04:39:48;;;;;;;0.70;0.70;;;;;;;;;;5040511;28;20034;-74
2023/01/31 04:42:14;;;;;;;0.82;0.82;;;;;;;;;;5030906;28;20119;-74
2023/01/31 04:44:39;;;;;;;0.70;0.70;;;;;;;;;;5013441;28;20033;-73
2023/01/31 04:47:04;;;;;;;0.60;0.60;;;;;;;;;;5030718;28;20461;-74
2023/01/31 04:49:30;;;;;;;1.10;0.85;;;;;;;;;;5038899;28;20029;-74
2023/01/31 04:51:55;;;;;;;1.33;1.33;;;;;;;;;;5032913;28;20032;-74
2023/01/31 04:54:20;;;;;;;0.80;0.80;;;;;;;;;;5041009;28;20036;-74
2023/01/31 04:56:49;;;;;;;0.80;0.80;;;;;;;;;;5043184;28;20032;-74
2023/01/31 04:59:14;;;;;;;1.83;1.05;;;;;;;;;;5038697;28;20021;-73
2023/01/31 05:01:40;;;;;;;0.90;0.90;;;;;;;;;;5033951;28;20513;-73
2023/01/31 05:04:06;;;;;;;0.60;0.60;;;;;;;;;;5023875;28;20025;-73
2023/01/31 05:06:31;;;;;;;0.80;0.80;;;;;;;;;;5042697;28;20517;-74
2023/01/31 05:09:00;;;;;;;0.68;0.68;;;;;;;;;;5038343;28;20094;-72
2023/01/31 05:11:25;;;;;;;0.80;0.80;;;;;;;;;;5036084;28;20044;-73
2023/01/31 05:13:50;;;;;;;0.65;0.65;;;;;;;;;;5041858;28;20021;-72
2023/01/31 05:16:15;;;;;;;0.80;0.80;;;;;;;;;;5046228;28;20031;-73
2023/01/31 05:18:41;;;;;;;0.52;0.52;;;;;;;;;;5041496;28;20104;-73
2023/01/31 05:21:07;;;;;;;0.60;0.60;;;;;;;;;;5036864;28;20487;-74
2023/01/31 05:23:32;;;;;;;0.70;0.70;;;;;;;;;;5025079;28;20025;-74
2023/01/31 05:25:58;;;;;;;0.70;0.70;;;;;;;;;;5039161;28;20080;-73
2023/01/31 05:28:24;;;;;;;0.60;0.60;;;;;;;;;;5043879;28;20070;-74
2023/01/31 05:30:50;;;;;;;0.70;0.70;;;;;;;;;;5046034;28;20029;-73
2023/01/31 05:33:16;;;;;;;0.70;0.70;;;;;;;;;;5041502;28;20033;-73
2023/01/31 05:35:41;;;;;;;0.60;0.60;;;;;;;;;;5040217;28;20026;-73
2023/01/31 05:38:08;;;;;;;0.63;0.63;;;;;;;;;;5028110;28;20033;-76
2023/01/31 05:40:33;;;;;;;0.77;0.77;;;;;;;;;;5048065;28;20039;-74
2023/01/31 05:42:59;;;;;;;0.70;0.70;;;;;;;;;;5044458;28;20029;-75
2023/01/31 05:45:25;;;;;;;1.25;0.98;;;;;;;;;;5046059;28;20029;-74
2023/01/31 05:47:51;;;;;;;1.10;1.10;;;;;;;;;;5041884;28;20048;-74
2023/01/31 05:50:16;;;;;;;0.85;0.82;;;;;;;;;;4951274;28;20053;-74
2023/01/31 05:52:42;;;;;;;0.70;0.70;;;;;;;;;;4993991;28;20026;-73
2023/01/31 05:55:07;;;;;;;0.60;0.60;;;;;;;;;;5012611;28;20384;-73
2023/01/31 05:57:32;;;;;;;0.70;0.70;;;;;;;;;;5013679;28;20032;-75
2023/01/31 05:59:59;;;;;;;2.05;1.95;;;;;;;;;;4996271;28;20033;-75
2023/01/31 06:02:24;;;;;;;1.02;1.02;;;;;;;;;;5012509;28;20025;-74
2023/01/31 06:04:49;;;;;;;0.75;0.75;;;;;;;;;;4996023;28;20032;-75
2023/01/31 06:07:14;;;;;;;1.15;1.15;;;;;;;;;;5011931;28;20033;-74
2023/01/31 06:09:40;;;;;;;0.82;0.82;;;;;;;;;;5013227;28;20439;-74
2023/01/31 06:12:07;;;;;;;0.88;0.80;;;;;;;;;;5012241;28;20104;-75
2023/01/31 06:14:32;;;;;;;0.73;0.73;;;;;;;;;;4994516;28;20484;-75
2023/01/31 06:16:57;;;;;;;0.68;0.68;;;;;;;;;;5000469;28;20029;-75
2023/01/31 06:19:24;;;;;;;0.60;0.60;;;;;;;;;;5012091;28;20029;-74
2023/01/31 06:21:50;;;;;;;0.63;0.63;;;;;;;;;;5012240;28;20450;-74
2023/01/31 06:24:15;;;;;;;0.60;0.60;;;;;;;;;;5012288;28;20435;-72
2023/01/31 06:26:40;;;;;;;0.60;0.60;;;;;;;;;;4995532;28;20026;-74
2023/01/31 06:29:07;;;;;;;0.50;0.50;;;;;;;;;;4995486;28;20057;-76
2023/01/31 06:31:33;;;;;;;0.93;0.80;;;;;;;;;;5012032;28;20080;-75
2023/01/31 06:33:58;;;;;;;0.90;0.90;;;;;;;;;;4995446;28;20025;-75
2023/01/31 06:36:23;;;;;;;3.65;3.30;;;;;;;;;;5011822;28;20060;-74
2023/01/31 06:38:52;;;;;;;3.88;2.47;;;;;;;;;;5011576;28;20072;-74
2023/01/31 06:41:20;;;;;;;3.03;1.77;;;;;;;;;;4995221;28;20037;-74
2023/01/31 06:43:45;;;;;;;2.65;2.55;;;;;;;;;;5010199;28;20040;-75
2023/01/31 06:46:11;;;;;;;2.50;2.40;;;;;;;;;;4991948;28;20022;-74
2023/01/31 06:48:36;;;;;;;20.77;11.68;;;;;;;;;;4994099;28;20455;-75
2023/01/31 06:51:01;;;;;;;8.48;7.78;;;;;;;;;;4995075;28;20057;-75
2023/01/31 06:53:27;;;;;;;5.60;5.05;;;;;;;;;;4995125;28;20026;-75
2023/01/31 06:55:52;;;;;;;2.13;2.03;;;;;;;;;;5010546;28;20029;-74
2023/01/31 06:58:17;;;;;;;3.60;3.33;;;;;;;;;;5005982;28;20395;-74
2023/01/31 07:00:43;;;;;;;1.05;1.05;;;;;;;;;;5004498;28;20364;-74
2023/01/31 07:03:08;;;;;;;1.90;1.48;;;;;;;;;;4994951;28;20518;-74
2023/01/31 07:05:33;;;;;;;0.70;0.70;;;;;;;;;;4994866;28;20029;-74
2023/01/31 07:07:59;;;;;;;0.70;0.70;;;;;;;;;;4994508;28;20034;-75
2023/01/31 07:10:24;;;;;;;0.80;0.80;;;;;;;;;;4994722;28;20037;-75
2023/01/31 07:12:49;;;;;;;0.80;0.80;;;;;;;;;;5011154;28;20464;-75
2023/01/31 07:15:15;;;;;;;3.25;2.70;;;;;;;;;;5012411;28;20030;-75
2023/01/31 07:17:40;;;;;;;1.42;1.42;;;;;;;;;;5010950;28;20052;-75
2023/01/31 07:20:06;;;;;;;0.70;0.70;;;;;;;;;;5010973;28;20025;-75
2023/01/31 07:22:31;;;;;;;1.60;1.50;;;;;;;;;;5010894;28;20506;-75
2023/01/31 07:24:57;;;;;;;1.63;1.52;;;;;;;;;;5012195;28;20021;-75
2023/01/31 07:27:23;;;;;;;0.90;0.90;;;;;;;;;;4994137;28;20033;-75
2023/01/31 07:29:49;;;;;;;0.70;0.70;;;;;;;;;;4994610;28;20029;-75
2023/01/31 07:32:14;;;;;;;1.00;1.00;;;;;;;;;;4989094;28;20025;-75
2023/01/31 07:34:40;;;;;;;0.80;0.80;;;;;;;;;;4983993;28;20522;-75
2023/01/31 07:37:05;;;;;;;0.73;0.73;;;;;;;;;;5001628;28;20031;-75
2023/01/31 07:39:30;;;;;;;0.70;0.70;;;;;;;;;;4994399;28;20030;-74
2023/01/31 07:41:55;;;;;;;0.90;0.90;;;;;;;;;;5010458;28;20100;-74
2023/01/31 07:44:21;;;;;;;0.80;0.80;;;;;;;;;;5010654;28;20472;-75
2023/01/31 07:46:47;;;;;;;2.72;1.83;;;;;;;;;;5009986;28;20075;-75
2023/01/31 07:49:12;;;;;;;0.70;0.70;;;;;;;;;;4994141;28;20087;-74
2023/01/31 07:51:37;;;;;;;1.67;1.63;;;;;;;;;;4994017;28;20022;-74
2023/01/31 07:54:07;;;;;;;1.35;1.33;;;;;;;;;;4984176;28;20387;-74
2023/01/31 07:56:33;;;;;;;12.35;2.35;;;;;;;;;;4993849;28;20018;-75
2023/01/31 07:58:58;;;;;;;0.90;0.90;;;;;;;;;;5009925;28;20076;-74
2023/01/31 08:04:11;;;;;;;0.95;0.95;;;;;;;;;;5010931;28;20032;-74
2023/01/31 08:06:38;;;;;;;3.15;2.20;;;;;;;;;;5010083;28;20029;-74
2023/01/31 08:09:03;;;;;;;1.00;1.00;;;;;;;;;;4999936;28;20571;-75
2023/01/31 08:11:29;;;;;;;0.63;0.63;;;;;;;;;;5004915;28;20113;-74
2023/01/31 08:13:54;;;;;;;1.20;1.17;;;;;;;;;;5001770;28;20117;-74
2023/01/31 08:16:20;;;;;;;5.60;3.38;;;;;;;;;;5010280;28;20022;-74
2023/01/31 08:18:46;;;;;;;1.33;1.30;;;;;;;;;;4993247;28;20391;-74
2023/01/31 08:21:11;;;;;;;1.25;1.25;;;;;;;;;;5011277;28;20022;-75
2023/01/31 08:23:38;;;;;;;3.30;1.80;;;;;;;;;;4993705;28;20030;-75
2023/01/31 08:26:05;;;;;;;2.17;2.00;;;;;;;;;;4994030;28;20022;-75
2023/01/31 08:28:31;;;;;;;7.30;2.55;;;;;;;;;;5009522;28;20029;-75
2023/01/31 08:30:56;;;;;;;1.70;1.50;;;;;;;;;;5010125;28;20022;-75
2023/01/31 08:33:22;;;;;;;3.22;1.80;;;;;;;;;;5000173;28;20392;-75
2023/01/31 08:35:47;;;;;;;2.38;1.80;;;;;;;;;;5006888;28;20085;-75
2023/01/31 08:38:13;;;;;;;0.90;0.90;;;;;;;;;;4993007;28;20018;-75
2023/01/31 08:40:38;;;;;;;0.70;0.70;;;;;;;;;;5010060;28;20476;-75
2023/01/31 08:43:03;;;;;;;1.85;1.52;;;;;;;;;;4993703;28;20033;-75
2023/01/31 08:45:29;;;;;;;0.90;0.90;;;;;;;;;;4991132;28;20109;-75
2023/01/31 08:47:55;;;;;;;1.10;1.10;;;;;;;;;;4989719;28;20033;-75
2023/01/31 08:50:23;;;;;;;1.13;1.13;;;;;;;;;;4993228;28;20030;-75
2023/01/31 08:52:56;;;;;;;1.42;1.33;;;;;;;;;;4995334;28;20022;-75
2023/01/31 08:55:22;;;;;;;0.70;0.70;;;;;;;;;;5003302;28;20026;-75
2023/01/31 08:57:48;;;;;;;3.20;1.27;;;;;;;;;;5003028;28;20069;-75
2023/01/31 09:00:14;;;;;;;2.53;2.33;;;;;;;;;;5009615;28;20018;-72
2023/01/31 09:02:40;;;;;;;1.65;1.55;;;;;;;;;;4997164;28;20030;-76
2023/01/31 09:05:07;;;;;;;0.90;0.90;;;;;;;;;;4997153;28;20557;-75
2023/01/31 09:07:33;;;;;;;1.15;1.05;;;;;;;;;;4996744;28;20028;-77
2023/01/31 09:09:58;;;;;;;1.58;0.80;;;;;;;;;;4996711;28;20026;-76
2023/01/31 09:12:23;;;;;;;1.10;1.05;;;;;;;;;;5013447;28;20021;-75
2023/01/31 09:14:50;;;;;;;0.70;0.70;;;;;;;;;;4996915;28;20021;-75
2023/01/31 09:17:15;;;;;;;2.17;1.88;;;;;;;;;;5013184;28;20026;-75
2023/01/31 09:19:40;;;;;;;0.85;0.85;;;;;;;;;;4992861;28;20037;-75
2023/01/31 09:22:06;;;;;;;0.60;0.60;;;;;;;;;;4987740;28;20033;-75
2023/01/31 09:24:31;;;;;;;0.70;0.70;;;;;;;;;;5013190;28;20480;-75
2023/01/31 09:26:56;;;;;;;1.30;1.02;;;;;;;;;;5002517;28;20030;-75
2023/01/31 09:29:21;;;;;;;0.60;0.60;;;;;;;;;;5010229;28;20400;-75
2023/01/31 09:31:52;;;;;;;0.60;0.60;;;;;;;;;;4996792;28;20117;-75
2023/01/31 09:34:18;;;;;;;0.95;0.95;;;;;;;;;;5013019;28;20025;-75
2023/01/31 09:36:44;;;;;;;0.70;0.70;;;;;;;;;;4996287;28;20030;-75
2023/01/31 09:39:10;;;;;;;1.50;1.17;;;;;;;;;;4998996;28;20441;-75
2023/01/31 09:41:41;;;;;;;3.30;1.42;;;;;;;;;;5009236;28;20087;-75
2023/01/31 09:44:25;;;;;;;1.55;1.45;;;;;;;;;;4994397;28;20036;-76
2023/01/31 09:46:55;;;;;;;0.50;0.50;;;;;;;;;;4995948;28;20022;-75
2023/01/31 09:49:30;;;;;;;0.60;0.60;;;;;;;;;;5004831;28;20491;-75
2023/01/31 09:52:00;;;;;;;1.00;1.00;;;;;;;;;;5008899;28;20472;-75
2023/01/31 09:54:33;;;;;;;0.60;0.60;;;;;;;;;;5012608;28;20142;-75
2023/01/31 09:57:34;;;;;;;2.17;0.70;;;;;;;;;;4995476;28;20112;-75
2023/01/31 10:00:31;;;;;;;0.73;0.73;;;;;;;;;;5000124;28;20069;-76
2023/01/31 10:03:09;;;;;;;8.90;1.98;;;;;;;;;;4994014;28;20044;-76
2023/01/31 10:05:43;;;;;;;0.98;0.98;;;;;;;;;;4972413;28;20026;-75
2023/01/31 10:08:33;;;;;;;0.55;0.55;;;;;;;;;;4998944;28;20018;-75
2023/01/31 10:11:00;;;;;;;0.90;0.90;;;;;;;;;;4984342;28;20026;-75
2023/01/31 10:13:30;;;;;;;1.05;1.05;;;;;;;;;;4989730;28;20254;-75
2023/01/31 10:15:59;;;;;;;0.60;0.60;;;;;;;;;;4992564;28;20081;-74
2023/01/31 10:18:27;;;;;;;1.23;1.23;;;;;;;;;;4996571;28;20054;-76
2023/01/31 10:20:58;;;;;;;0.77;0.77;;;;;;;;;;5005414;28;20109;-75
2023/01/31 10:23:39;;;;;;;2.78;1.95;;;;;;;;;;4999512;28;20381;-76
2023/01/31 10:26:15;;;;;;;0.95;0.95;;;;;;;;;;4998556;28;20045;-75
2023/01/31 10:28:48;;;;;;;0.50;0.50;;;;;;;;;;5011092;28;20018;-75
2023/01/31 10:31:51;;;;;;;5.18;1.23;;;;;;;;;;4998259;28;20029;-76
2023/01/31 10:34:28;;;;;;;0.50;0.50;;;;;;;;;;4991194;28;20567;-75
2023/01/31 10:37:04;;;;;;;2.20;1.42;;;;;;;;;;4990071;28;20384;-76
2023/01/31 10:39:31;;;;;;;;;;;;;;;;;;4998417;28;20365;-76
2023/01/31 10:42:02;;;;;;;5.22;4.78;;;;;;;;;;5007090;28;20020;-76
2023/01/31 10:44:49;;;;;;;0.55;0.55;;;;;;;;;;4986094;28;20113;-75
2023/01/31 10:47:16;;;;;;;0.50;0.50;;;;;;;;;;4981365;28;20086;-76
2023/01/31 10:49:46;;;;;;;30.67;4.00;;;;;;;;;;5001686;28;20031;-76
2023/01/31 10:52:34;;;;;;;0.50;0.50;;;;;;;;;;4992373;28;20080;-76
2023/01/31 10:55:16;;;;;;;0.60;0.60;;;;;;;;;;5011566;28;20075;-76
2023/01/31 10:57:41;;;;;;;4.60;1.15;;;;;;;;;;5010937;28;20467;-76
2023/01/31 11:00:19;;;;;;;3.50;1.17;;;;;;;;;;4982634;28;20041;-76
2023/01/31 11:02:44;;;;;;;1.67;1.58;;;;;;;;;;4978329;28;20021;-76
2023/01/31 11:05:15;;;;;;;0.60;0.60;;;;;;;;;;5011543;28;20030;-75
2023/01/31 11:07:40;;;;;;;1.90;1.80;;;;;;;;;;4993489;28;20022;-76
2023/01/31 11:10:25;;;;;;;0.73;0.73;;;;;;;;;;5002069;28;20041;-74
2023/01/31 11:12:55;;;;;;;1.13;1.13;;;;;;;;;;4996004;28;20101;-76
2023/01/31 11:15:24;;;;;;;1.25;1.15;;;;;;;;;;4990108;28;20028;-76
2023/01/31 11:17:50;;;;;;;1.20;1.20;;;;;;;;;;5006057;28;20020;-75
2023/01/31 11:20:29;;;;;;;1.35;1.25;;;;;;;;;;4995379;28;20030;-76
2023/01/31 11:22:56;;;;;;;1.05;1.05;;;;;;;;;;4982188;28;20025;-76
2023/01/31 11:25:23;;;;;;;0.85;0.85;;;;;;;;;;4996076;28;20101;-75
2023/01/31 11:27:52;;;;;;;6.10;3.22;;;;;;;;;;5011802;28;20022;-75
2023/01/31 11:30:26;;;;;;;1.58;1.20;;;;;;;;;;5011303;28;20072;-75
2023/01/31 11:32:52;;;;;;;1.65;1.27;;;;;;;;;;5010986;28;20550;-74
2023/01/31 11:35:17;;;;;;;2.72;1.80;;;;;;;;;;5010864;28;20022;-75
2023/01/31 11:38:03;;;;;;;3.13;1.50;;;;;;;;;;5011701;28;20054;-75
2023/01/31 11:40:36;;;;;;;6.83;2.53;;;;;;;;;;4993211;28;20022;-74
2023/01/31 11:43:23;;;;;;;4.47;2.85;;;;;;;;;;4971768;28;20030;-75
2023/01/31 11:45:59;;;;;;;26.40;6.30;;;;;;;;;;4992807;28;20029;-74
2023/01/31 11:48:43;;;;;;;9.80;3.70;;;;;;;;;;5010056;28;20063;-75
2023/01/31 11:51:10;;;;;;;5.88;3.80;;;;;;;;;;4994251;28;20033;-75
2023/01/31 11:53:44;;;;;;;6.68;2.20;;;;;;;;;;5010514;28;20029;-74
2023/01/31 11:56:22;;;;;;;4.82;3.45;;;;;;;;;;4985972;28;20026;-74
2023/01/31 11:58:51;;;;;;;4.93;2.65;;;;;;;;;;4987196;28;20033;-75
2023/01/31 12:01:20;;;;;;;5.47;3.28;;;;;;;;;;4983930;28;20026;-75
2023/01/31 12:03:51;;;;;;;1.40;1.15;;;;;;;;;;4980557;28;20523;-75
2023/01/31 12:06:34;;;;;;;5.85;2.85;;;;;;;;;;5000494;28;20109;-75
2023/01/31 12:09:01;;;;;;;4.45;2.60;;;;;;;;;;4999751;28;20026;-74
2023/01/31 12:11:29;;;;;;;2.83;1.83;;;;;;;;;;4996336;28;20038;-74
2023/01/31 12:14:13;;;;;;;6.60;3.35;;;;;;;;;;4979417;28;20026;-74
2023/01/31 12:16:38;;;;;;;8.50;5.57;;;;;;;;;;5008771;28;20495;-73
2023/01/31 12:19:13;;;;;;;2.15;2.05;;;;;;;;;;4985509;28;20028;-76
2023/01/31 12:21:56;;;;;;;10.07;3.97;;;;;;;;;;4983780;28;20030;-76
2023/01/31 12:24:27;;;;;;;2.55;1.80;;;;;;;;;;5010788;28;20088;-75
2023/01/31 12:27:10;;;;;;;1.05;1.02;;;;;;;;;;5011968;28;20387;-75
2023/01/31 12:29:57;;;;;;;0.98;0.98;;;;;;;;;;5006978;28;20041;-74
2023/01/31 12:32:41;;;;;;;4.13;2.83;;;;;;;;;;4990736;28;20026;-74
2023/01/31 12:35:16;;;;;;;3.00;2.70;;;;;;;;;;5013869;28;20476;-75
2023/01/31 12:38:00;;;;;;;14.75;1.73;;;;;;;;;;5013635;28;20388;-74
2023/01/31 12:40:37;;;;;;;2.67;2.42;;;;;;;;;;5013742;28;20379;-75
2023/01/31 12:43:11;;;;;;;1.25;1.15;;;;;;;;;;5013993;28;20018;-75
2023/01/31 12:45:46;;;;;;;5.63;2.28;;;;;;;;;;5009830;28;20480;-75
2023/01/31 12:48:33;;;;;;;2.25;2.13;;;;;;;;;;5004984;28;20029;-75
2023/01/31 12:51:32;;;;;;;1.00;1.00;;;;;;;;;;4982030;28;20080;-75
2023/01/31 12:54:09;;;;;;;3.22;2.65;;;;;;;;;;4996713;28;20559;-75
2023/01/31 12:56:59;;;;;;;5.47;2.22;;;;;;;;;;5008871;28;20022;-74
2023/01/31 12:59:38;;;;;;;1.27;1.17;;;;;;;;;;5013937;28;20558;-76
2023/01/31 13:02:06;;;;;;;2.85;2.25;;;;;;;;;;4998045;28;20026;-75
2023/01/31 13:04:42;;;;;;;7.65;2.50;;;;;;;;;;5000020;28;20101;-73
2023/01/31 13:07:15;;;;;;;0.50;0.50;;;;;;;;;;4988276;28;20038;-75
2023/01/31 13:09:41;;;;;;;0.50;0.50;;;;;;;;;;5006654;28;20034;-75
2023/01/31 13:12:15;;;;;;;13.95;4.90;;;;;;;;;;4999592;28;20101;-75
2023/01/31 13:15:04;;;;;;;3.70;1.92;;;;;;;;;;4979741;28;20045;-75
2023/01/31 13:17:31;;;;;;;2.63;1.45;;;;;;;;;;4995923;28;20105;-75
2023/01/31 13:20:22;;;;;;;4.20;3.85;;;;;;;;;;4994214;28;20105;-75
2023/01/31 13:23:11;;;;;;;3.40;2.40;;;;;;;;;;5006358;28;20080;-75
2023/01/31 13:25:39;;;;;;;3.58;2.30;;;;;;;;;;5005258;28;20117;-75
2023/01/31 13:28:15;;;;;;;1.05;0.88;;;;;;;;;;4999883;28;20014;-74
2023/01/31 13:30:43;;;;;;;;;;;;;;;;;;5013355;28;20030;-75
2023/01/31 13:33:22;;;;;;;2.28;2.08;;;;;;;;;;5000193;28;19920;-74
2023/01/31 13:35:55;;;;;;;2.17;2.08;;;;;;;;;;4999017;28;20042;-75
2023/01/31 13:38:21;;;;;;;2.15;1.45;;;;;;;;;;5002443;28;20026;-75
2023/01/31 13:40:50;;;;;;;1.08;0.60;;;;;;;;;;4996011;28;20034;-75
2023/01/31 13:43:15;;;;;;;1.08;1.02;;;;;;;;;;4997632;28;20077;-74
2023/01/31 13:46:11;;;;;;;0.50;0.50;;;;;;;;;;4996057;28;20025;-75
2023/01/31 13:49:00;;;;;;;2.83;2.22;;;;;;;;;;4986337;28;20026;-75
2023/01/31 13:51:35;;;;;;;8.57;1.90;;;;;;;;;;5005533;28;20041;-75
2023/01/31 13:54:20;;;;;;;1.15;1.15;;;;;;;;;;4999798;28;20492;-75
2023/01/31 13:56:53;;;;;;;3.38;1.67;;;;;;;;;;5002245;28;20030;-75
2023/01/31 13:59:22;;;;;;;3.05;2.83;;;;;;;;;;4997288;28;20057;-75
2023/01/31 14:01:49;;;;;;;1.50;1.42;;;;;;;;;;4989053;28;20033;-75
2023/01/31 14:04:14;;;;;;;6.70;2.40;;;;;;;;;;4991811;28;20484;-75
2023/01/31 14:06:51;;;;;;;1.40;1.40;;;;;;;;;;5004442;28;20068;-75
2023/01/31 14:09:28;;;;;;;3.75;2.45;;;;;;;;;;4996969;28;20021;-76
2023/01/31 14:12:05;;;;;;;3.53;2.53;;;;;;;;;;4999414;28;20061;-75
2023/01/31 14:14:37;;;;;;;1.33;1.33;;;;;;;;;;4998724;28;20448;-75
2023/01/31 14:17:33;;;;;;;2.15;1.95;;;;;;;;;;5004230;28;20022;-75
2023/01/31 14:20:36;;;;;;;1.30;1.30;;;;;;;;;;5013254;28;20026;-75
2023/01/31 14:23:26;;;;;;;2.72;1.88;;;;;;;;;;4973572;28;20038;-75
2023/01/31 14:25:52;;;;;;;0.50;0.50;;;;;;;;;;5007124;28;20038;-75
2023/01/31 14:28:17;;;;;;;0.60;0.60;;;;;;;;;;4995633;28;20361;-75
2023/01/31 14:30:43;;;;;;;8.70;3.17;;;;;;;;;;5012064;28;20498;-74
2023/01/31 14:33:11;;;;;;;5.38;2.25;;;;;;;;;;5004733;28;20512;-74
2023/01/31 14:35:55;;;;;;;3.88;2.13;;;;;;;;;;5006650;28;20029;-75
2023/01/31 14:38:53;;;;;;;0.85;0.85;;;;;;;;;;5012840;28;20033;-75
2023/01/31 14:42:06;;;;;;;0.50;0.50;;;;;;;;;;4975910;28;20080;-74
2023/01/31 14:44:59;;;;;;;1.02;0.93;;;;;;;;;;4982256;28;20026;-75
2023/01/31 14:47:39;;;;;;;1.45;0.82;;;;;;;;;;4988419;28;20057;-75
2023/01/31 14:50:23;;;;;;;8.23;2.85;;;;;;;;;;4997180;28;20049;-74
2023/01/31 14:53:19;;;;;;;2.20;1.63;;;;;;;;;;4990226;28;20077;-75
2023/01/31 14:56:05;;;;;;;4.00;2.92;;;;;;;;;;5005038;28;20491;-76
2023/01/31 14:58:33;;;;;;;2.67;2.03;;;;;;;;;;5006993;28;20034;-75
2023/01/31 15:01:02;;;;;;;15.43;2.83;;;;;;;;;;4980001;28;20084;-75
2023/01/31 15:03:29;;;;;;;4.65;2.88;;;;;;;;;;4995258;28;20066;-75
2023/01/31 15:06:28;;;;;;;9.57;5.13;;;;;;;;;;4984374;28;20026;-75
2023/01/31 15:09:15;;;;;;;1.15;1.05;;;;;;;;;;4999299;28;20038;-75
2023/01/31 15:11:46;;;;;;;1.17;1.08;;;;;;;;;;4995703;28;20033;-75